.
WxDataArchive / Data Records for 2016-03-01
2016-02-29 March 2016 2016-03-02

Data Records for Tuesday, 01 March 2016

Time	Temp	Chill	HIndex	Humid	Dewpt	 Wind 	HiWind	WindDir	Rain 	Barom
-----	----	-----	------	-----	-----	------	------	-------	-----	-----
00:00	37.8	37.8	37.8	75	30.6	3	10	112	0.00	30.003 
00:05	37.3	37.3	37.3	76	30.4	1	4	112	0.00	30.003 
00:10	36.9	36.9	36.9	76	30.1	1	5	68	0.00	30.003 
00:15	36.5	33.3	36.5	77	30.0	4	10	90	0.00	29.992 
00:20	36.0	36.0	36.0	77	29.5	3	8	112	0.00	29.992 
00:25	35.8	35.8	35.8	78	29.6	1	5	112	0.00	29.992 
00:30	35.6	35.6	35.6	78	29.4	2	9	90	0.00	29.992 
00:35	35.3	35.3	35.3	78	29.1	2	6	68	0.00	29.992 
00:40	35.0	35.0	35.0	77	28.5	1	6	90	0.00	29.992 
00:45	34.7	34.7	34.7	78	28.6	1	9	68	0.00	30.000 
00:50	34.6	34.6	34.6	78	28.5	1	4	90	0.00	30.000 
00:55	34.6	34.6	34.6	79	28.8	2	7	90	0.00	30.000 
01:00	34.4	34.4	34.4	79	28.6	2	9	90	0.00	30.000 
01:05	34.3	34.3	34.3	80	28.8	3	11	90	0.00	30.000 
01:10	34.1	34.1	34.1	80	28.6	2	10	112	0.00	30.000 
01:15	34.0	34.0	34.0	80	28.5	3	11	90	0.00	29.995 
01:20	33.8	33.8	33.8	80	28.3	2	6	90	0.00	29.995 
01:25	33.7	33.7	33.7	80	28.2	3	6	90	0.00	29.995 
01:30	33.5	33.5	33.5	80	28.0	2	6	90	0.00	29.992 
01:35	33.4	33.4	33.4	80	27.9	3	10	90	0.00	29.992 
01:40	33.4	33.4	33.4	79	27.6	3	9	112	0.00	29.992 
01:45	33.2	33.2	33.2	79	27.4	3	9	90	0.00	29.981 
01:50	33.2	33.2	33.2	79	27.4	3	9	90	0.00	29.981 
01:55	33.1	33.1	33.1	78	27.0	3	10	90	0.00	29.981 
02:00	33.1	33.1	33.1	79	27.3	2	5	90	0.00	29.980 
02:05	33.1	33.1	33.1	79	27.3	3	10	112	0.00	29.980 
02:10	33.1	33.1	33.1	79	27.3	3	10	112	0.00	29.980 
02:15	33.1	33.1	33.1	79	27.3	2	7	112	0.00	29.988 
02:20	33.1	33.1	33.1	79	27.3	1	6	112	0.00	29.988 
02:25	32.9	32.9	32.9	79	27.1	3	7	90	0.00	29.988 
02:30	32.9	32.9	32.9	80	27.4	2	6	112	0.00	29.979 
02:35	32.8	32.8	32.8	80	27.3	2	5	90	0.00	29.979 
02:40	32.7	32.7	32.7	80	27.2	1	5	90	0.00	29.979 
02:45	32.7	32.7	32.7	81	27.5	2	5	90	0.00	29.969 
02:50	32.5	27.7	32.5	81	27.3	5	12	90	0.00	29.969 
02:55	32.5	28.7	32.5	81	27.3	4	10	112	0.00	29.969 
03:00	32.4	28.5	32.4	81	27.2	4	10	112	0.00	29.975 
03:05	32.2	32.2	32.2	81	27.0	3	7	112	0.00	29.975 
03:10	32.1	28.2	32.1	81	26.9	4	10	112	0.00	29.975 
03:15	31.8	27.8	31.8	81	26.6	4	7	90	0.00	29.966 
03:20	31.6	26.6	31.6	81	26.5	5	11	112	0.00	29.966 
03:25	31.6	27.6	31.6	81	26.5	4	7	90	0.00	29.966 
03:30	31.3	25.4	31.3	81	26.2	6	13	90	0.00	29.942 
03:35	31.2	24.5	31.2	82	26.4	7	13	90	0.00	29.942 
03:40	30.9	24.9	30.9	81	25.8	6	12	90	0.00	29.942 
03:45	30.6	23.8	30.6	81	25.5	7	17	112	0.00	29.930 
03:50	30.3	25.1	30.3	81	25.2	5	10	90	0.00	29.930 
03:55	30.1	24.8	30.1	82	25.3	5	11	112	0.00	29.930 
04:00	30.0	23.8	30.0	81	24.9	6	17	90	0.00	29.937 
04:05	29.7	23.5	29.7	80	24.3	6	14	112	0.00	29.937 
04:10	29.5	22.5	29.5	79	23.8	7	13	90	0.00	29.937 
04:15	29.5	23.3	29.5	79	23.8	6	14	112	0.00	29.938 
04:20	29.4	24.0	29.4	80	24.0	5	10	90	0.00	29.938 
04:25	29.4	23.1	29.4	80	24.0	6	11	112	0.00	29.938 
04:30	29.4	23.1	29.4	80	24.0	6	13	90	0.00	29.937 
04:35	29.4	23.1	29.4	80	24.0	6	15	90	0.00	29.937 
04:40	29.3	23.9	29.3	81	24.2	5	10	90	0.00	29.937 
04:45	29.3	23.0	29.3	81	24.2	6	12	90	0.00	29.939 
04:50	29.3	23.9	29.3	81	24.2	5	11	112	0.00	29.939 
04:55	29.1	24.7	29.1	81	24.0	4	10	90	0.00	29.939 
05:00	29.1	22.0	29.1	81	24.0	7	16	90	0.00	29.939 
05:05	29.0	23.6	29.0	81	23.9	5	11	90	0.00	29.939 
05:10	29.0	23.6	29.0	81	23.9	5	12	112	0.00	29.939 
05:15	29.0	22.7	29.0	81	23.9	6	13	112	0.00	29.938 
05:20	29.0	22.7	29.0	80	23.6	6	12	112	0.00	29.938 
05:25	29.0	22.7	29.0	80	23.6	6	11	112	0.00	29.938 
05:30	29.0	22.7	29.0	80	23.6	6	11	90	0.00	29.929 
05:35	29.0	24.6	29.0	80	23.6	4	9	112	0.00	29.929 
05:40	29.0	22.7	29.0	80	23.6	6	13	90	0.00	29.929 
05:45	29.0	23.6	29.0	80	23.6	5	14	90	0.00	29.917 
05:50	29.0	23.6	29.0	79	23.3	5	11	90	0.00	29.917 
05:55	29.0	23.6	29.0	79	23.3	5	12	112	0.00	29.917 
06:00	29.0	23.6	29.0	79	23.3	5	12	112	0.00	29.916 
06:05	28.8	24.4	28.8	78	22.8	4	10	112	0.00	29.916 
06:10	28.8	23.3	28.8	78	22.8	5	12	112	0.00	29.916 
06:15	28.8	24.4	28.8	78	22.8	4	10	112	0.00	29.911 
06:20	28.8	23.3	28.8	77	22.5	5	10	90	0.00	29.911 
06:25	28.8	22.4	28.8	77	22.5	6	13	90	0.00	29.911 
06:30	28.8	23.3	28.8	77	22.5	5	11	90	0.00	29.906 
06:35	28.8	21.6	28.8	78	22.8	7	16	112	0.00	29.906 
06:40	29.0	23.6	29.0	79	23.3	5	11	90	0.00	29.906 
06:45	29.0	23.6	29.0	79	23.3	5	11	90	0.00	29.901 
06:50	29.0	22.7	29.0	80	23.6	6	11	112	0.00	29.901 
06:55	29.0	24.6	29.0	80	23.6	4	9	90	0.00	29.901 
07:00	29.0	29.0	29.0	80	23.6	3	7	112	0.00	29.900 
07:05	29.0	29.0	29.0	81	23.9	3	8	112	0.00	29.900 
07:10	29.1	24.7	29.1	81	24.0	4	7	90	0.00	29.900 
07:15	29.0	23.6	29.0	81	23.9	5	11	90	0.00	29.888 
07:20	29.0	23.6	29.0	81	23.9	5	11	90	0.00	29.888 
07:25	29.0	22.7	29.0	81	23.9	6	12	90	0.00	29.888 
07:30	29.0	24.6	29.0	80	23.6	4	11	112	0.00	29.885 
07:35	29.1	23.7	29.1	81	24.0	5	12	112	0.00	29.885 
07:40	29.0	22.7	29.0	81	23.9	6	13	112	0.00	29.885 
07:45	29.0	22.7	29.0	81	23.9	6	11	90	0.00	29.867 
07:50	29.0	22.7	29.0	80	23.6	6	11	90	0.00	29.867 
07:55	29.0	21.9	29.0	81	23.9	7	14	90	0.00	29.867 
08:00	29.1	23.7	29.1	81	24.0	5	10	112	0.00	29.871 
08:05	29.1	24.7	29.1	81	24.0	4	8	90	0.00	29.871 
08:10	29.3	25.0	29.3	81	24.2	4	8	90	0.00	29.871 
08:15	29.3	23.9	29.3	81	24.2	5	11	112	0.00	29.864 
08:20	29.3	25.0	29.3	81	24.2	4	9	112	0.00	29.864 
08:25	29.3	23.0	29.3	81	24.2	6	14	90	0.00	29.864 
08:30	29.3	25.0	29.3	81	24.2	4	10	90	0.00	29.854 
08:35	29.4	23.1	29.4	81	24.3	6	12	90	0.00	29.854 
08:40	29.4	22.4	29.4	80	24.0	7	13	112	0.00	29.854 
08:45	29.4	23.1	29.4	80	24.0	6	14	112	0.00	29.851 
08:50	29.4	25.1	29.4	80	24.0	4	10	112	0.00	29.851 
08:55	29.5	25.2	29.5	80	24.1	4	11	90	0.00	29.851 
09:00	29.7	23.5	29.7	80	24.3	6	11	90	0.00	29.838 
09:05	29.7	23.5	29.7	80	24.3	6	12	90	0.00	29.838 
09:10	29.8	23.6	29.8	80	24.4	6	12	90	0.00	29.838 
09:15	30.0	24.7	30.0	80	24.6	5	11	90	0.00	29.823 
09:20	30.0	23.8	30.0	79	24.3	6	13	112	0.00	29.823 
09:25	30.0	23.8	30.0	79	24.3	6	12	90	0.00	29.823 
09:30	30.0	24.7	30.0	80	24.6	5	10	90	0.00	29.811 
09:35	30.1	25.9	30.1	80	24.7	4	11	112	0.00	29.811 
09:40	30.3	30.3	30.3	80	24.9	3	7	112	0.00	29.811 
09:45	30.4	30.4	30.4	79	24.7	3	11	90	0.00	29.803 
09:50	30.6	26.5	30.6	80	25.2	4	11	90	0.00	29.803 
09:55	30.7	25.5	30.7	80	25.3	5	9	90	0.00	29.803 
10:00	30.7	25.5	30.7	79	25.0	5	12	90	0.00	29.787 
10:05	30.9	24.9	30.9	79	25.2	6	11	112	0.00	29.787 
10:10	30.9	24.9	30.9	80	25.5	6	10	90	0.00	29.787 
10:15	31.0	26.9	31.0	80	25.6	4	9	90	0.00	29.767 
10:20	31.3	31.3	31.3	80	25.9	3	10	112	0.00	29.767 
10:25	31.5	27.5	31.5	79	25.8	4	9	112	0.00	29.767 
10:30	31.6	27.6	31.6	80	26.2	4	10	90	0.00	29.760 
10:35	31.9	28.0	31.9	79	26.1	4	9	90	0.00	29.760 
10:40	32.1	28.2	32.1	79	26.3	4	11	112	0.00	29.760 
10:45	32.4	27.5	32.4	79	26.6	5	11	90	0.00	29.743 
10:50	32.4	28.5	32.4	79	26.6	4	11	112	0.00	29.743 
10:55	32.5	32.5	32.5	79	26.7	2	7	112	0.00	29.743 
11:00	32.7	27.9	32.7	78	26.6	5	11	90	0.00	29.734 
11:05	32.8	29.0	32.8	79	27.0	4	8	90	0.00	29.734 
11:10	32.8	29.0	32.8	78	26.7	4	9	90	0.00	29.734 
11:15	32.9	29.1	32.9	79	27.1	4	8	90	0.00	29.729 
11:20	33.1	29.3	33.1	78	27.0	4	10	90	0.00	29.729 
11:25	33.2	33.2	33.2	78	27.1	3	7	90	0.00	29.729 
11:30	33.2	33.2	33.2	78	27.1	3	9	90	0.00	29.726 
11:35	33.4	29.7	33.4	79	27.6	4	10	112	0.00	29.726 
11:40	33.7	30.0	33.7	79	27.9	4	9	112	0.00	29.726 
11:45	33.8	30.2	33.8	78	27.7	4	9	112	0.00	29.696 
11:50	33.8	30.2	33.8	78	27.7	4	9	90	0.00	29.696 
11:55	33.8	33.8	33.8	79	28.0	3	6	90	0.00	29.696 
12:00	33.8	30.2	33.8	79	28.0	4	10	90	0.00	29.686 
12:05	34.0	30.4	34.0	79	28.2	4	9	112	0.00	29.686 
12:10	34.1	34.1	34.1	79	28.3	3	9	112	0.00	29.686 
12:15	34.3	30.7	34.3	79	28.5	4	9	90	0.00	29.669 
12:20	34.4	30.8	34.4	79	28.6	4	9	90	0.00	29.669 
12:25	34.7	31.2	34.7	79	28.9	4	9	112	0.00	29.669 
12:30	34.7	30.2	34.7	78	28.6	5	9	90	0.00	29.643 
12:35	34.9	30.5	34.9	79	29.1	5	11	112	0.00	29.643 
12:40	35.2	30.8	35.2	79	29.4	5	10	112	0.00	29.643 
12:45	35.5	35.5	35.5	78	29.3	3	6	112	0.00	29.631 
12:50	35.8	32.5	35.8	78	29.6	4	7	90	0.00	29.631 
12:55	36.0	32.7	36.0	78	29.8	4	7	112	0.00	29.631 
13:00	36.2	36.2	36.2	78	30.0	3	7	90	0.00	29.631 
13:05	36.3	33.0	36.3	78	30.1	4	7	90	0.00	29.631 
13:10	36.5	36.5	36.5	78	30.3	3	6	112	0.00	29.631 
13:15	36.8	36.8	36.8	78	30.6	2	5	90	0.00	29.612 
13:20	36.9	36.9	36.9	78	30.7	2	5	112	0.00	29.612 
13:25	37.0	37.0	37.0	78	30.8	2	5	112	0.00	29.612 
13:30	37.2	37.2	37.2	79	31.3	3	5	112	0.00	29.591 
13:35	37.2	37.2	37.2	81	31.9	2	4	90	0.00	29.591 
13:40	37.0	37.0	37.0	82	32.0	3	6	90	0.00	29.591 
13:45	37.0	37.0	37.0	83	32.3	2	4	90	0.01	29.566 
13:50	37.2	37.2	37.2	84	32.8	2	5	90	0.00	29.566 
13:55	37.2	37.2	37.2	85	33.1	2	6	90	0.00	29.566 
14:00	37.3	37.3	37.3	86	33.5	1	3	112	0.01	29.544 
14:05	37.3	37.3	37.3	86	33.5	2	5	112	0.00	29.544 
14:10	37.5	37.5	37.5	87	34.0	1	4	112	0.01	29.544 
14:15	37.5	37.5	37.5	87	34.0	1	3	112	0.00	29.529 
14:20	37.6	37.6	37.6	88	34.4	2	4	112	0.00	29.529 
14:25	37.6	37.6	37.6	88	34.4	2	4	112	0.01	29.529 
14:30	37.5	37.5	37.5	88	34.3	2	6	112	0.00	29.515 
14:35	37.5	37.5	37.5	89	34.6	1	4	90	0.01	29.515 
14:40	37.6	37.6	37.6	89	34.7	0	2	90	0.01	29.515 
14:45	37.6	37.6	37.6	90	34.9	0	1	90	0.00	29.528 
14:50	37.6	37.6	37.6	90	34.9	0	1	90	0.01	29.528 
14:55	37.6	37.6	37.6	90	34.9	0	1	90	0.00	29.528 
15:00	37.8	37.8	37.8	90	35.1	0	0	---	0.01	29.523 
15:05	37.8	37.8	37.8	90	35.1	0	1	90	0.00	29.523 
15:10	37.6	37.6	37.6	90	34.9	0	2	90	0.00	29.523 
15:15	37.5	37.5	37.5	90	34.8	1	2	338	0.00	29.530 
15:20	37.2	37.2	37.2	91	34.8	1	3	338	0.00	29.530 
15:25	37.0	37.0	37.0	91	34.6	1	3	338	0.01	29.530 
15:30	36.8	36.8	36.8	91	34.4	1	3	292	0.00	29.530 
15:35	36.6	36.6	36.6	91	34.2	1	4	292	0.00	29.530 
15:40	36.5	36.5	36.5	91	34.1	0	2	292	0.00	29.530 
15:45	36.3	36.3	36.3	91	33.9	1	4	292	0.01	29.528 
15:50	36.0	36.0	36.0	91	33.6	1	4	292	0.00	29.528 
15:55	35.8	35.8	35.8	91	33.4	1	5	338	0.00	29.528 
16:00	35.6	35.6	35.6	92	33.5	1	3	338	0.01	29.531 
16:05	35.5	35.5	35.5	92	33.4	1	3	315	0.01	29.531 
16:10	35.3	35.3	35.3	92	33.2	1	4	315	0.00	29.531 
16:15	35.0	35.0	35.0	92	32.9	1	3	315	0.01	29.534 
16:20	34.7	34.7	34.7	92	32.6	2	5	292	0.01	29.534 
16:25	34.3	34.3	34.3	92	32.2	1	4	292	0.00	29.534 
16:30	34.0	34.0	34.0	92	31.9	2	5	292	0.01	29.548 
16:35	33.7	33.7	33.7	92	31.6	2	4	292	0.00	29.548 
16:40	33.5	33.5	33.5	92	31.4	1	3	292	0.00	29.548 
16:45	33.2	33.2	33.2	92	31.1	1	4	292	0.00	29.565 
16:50	33.1	33.1	33.1	92	31.0	1	3	292	0.00	29.565 
16:55	32.9	32.9	32.9	92	30.8	2	5	292	0.00	29.565 
17:00	32.8	32.8	32.8	92	30.7	2	3	292	0.00	29.576 
17:05	32.7	32.7	32.7	92	30.6	2	4	292	0.00	29.576 
17:10	32.4	32.4	32.4	92	30.3	2	5	292	0.00	29.576 
17:15	32.2	32.2	32.2	92	30.1	1	3	292	0.00	29.585 
17:20	32.1	32.1	32.1	92	30.0	1	5	292	0.00	29.585 
17:25	31.6	31.6	31.6	92	29.5	3	5	292	0.00	29.585 
17:30	31.2	31.2	31.2	92	29.2	2	5	315	0.00	29.607 
17:35	30.7	30.7	30.7	92	28.7	2	5	292	0.00	29.607 
17:40	30.3	30.3	30.3	92	28.3	3	6	292	0.00	29.607 
17:45	30.0	30.0	30.0	92	28.0	3	6	292	0.00	29.627 
17:50	29.8	29.8	29.8	92	27.8	3	7	270	0.00	29.627 
17:55	29.5	29.5	29.5	92	27.5	3	6	292	0.00	29.627 
18:00	29.0	24.6	29.0	92	27.0	4	7	338	0.00	29.639 
18:05	28.7	28.7	28.7	91	26.4	3	7	292	0.00	29.639 
18:10	28.1	28.1	28.1	91	25.8	3	5	292	0.00	29.639 
18:15	27.8	27.8	27.8	91	25.5	2	4	292	0.00	29.658 
18:20	27.2	27.2	27.2	90	24.7	3	9	292	0.00	29.658 
18:25	26.4	21.6	26.4	89	23.6	4	11	315	0.00	29.658 
18:30	26.0	26.0	26.0	89	23.2	3	9	292	0.00	29.694 
18:35	25.4	25.4	25.4	88	22.4	3	6	270	0.00	29.694 
18:40	25.1	25.1	25.1	88	22.1	3	7	270	0.00	29.694 
18:45	24.5	24.5	24.5	87	21.2	3	6	270	0.00	29.716 
18:50	24.4	24.4	24.4	87	21.1	3	7	292	0.00	29.716 
18:55	24.1	24.1	24.1	87	20.8	2	6	292	0.00	29.716 
19:00	24.1	24.1	24.1	86	20.5	3	6	292	0.00	29.735 
19:05	23.8	23.8	23.8	86	20.2	3	6	292	0.00	29.735 
19:10	23.6	23.6	23.6	86	20.0	3	6	292	0.00	29.735 
19:15	23.6	23.6	23.6	86	20.0	3	9	292	0.00	29.753 
19:20	23.5	23.5	23.5	85	19.7	3	8	270	0.00	29.753 
19:25	23.5	23.5	23.5	85	19.7	3	12	292	0.00	29.753 
19:30	23.3	23.3	23.3	85	19.5	3	6	292	0.00	29.767 
19:35	23.3	23.3	23.3	85	19.5	3	10	270	0.00	29.767 
19:40	23.3	23.3	23.3	84	19.2	3	6	270	0.00	29.767 
19:45	23.3	23.3	23.3	84	19.2	3	6	315	0.00	29.783 
19:50	23.3	18.0	23.3	84	19.2	4	10	292	0.00	29.783 
19:55	23.3	23.3	23.3	84	19.2	3	4	315	0.00	29.783 
20:00	23.3	18.0	23.3	84	19.2	4	9	292	0.00	29.801 
20:05	23.2	17.9	23.2	84	19.1	4	9	292	0.00	29.801 
20:10	23.2	23.2	23.2	83	18.8	3	7	292	0.00	29.801 
20:15	23.2	23.2	23.2	83	18.8	3	7	270	0.00	29.815 
20:20	23.2	23.2	23.2	83	18.8	3	6	292	0.00	29.815 
20:25	23.0	17.7	23.0	83	18.6	4	8	270	0.00	29.815 
20:30	23.0	23.0	23.0	83	18.6	3	7	292	0.00	29.828 
20:35	23.0	23.0	23.0	83	18.6	3	7	315	0.00	29.828 
20:40	23.0	23.0	23.0	83	18.6	3	6	292	0.00	29.828 
20:45	23.0	23.0	23.0	82	18.3	3	6	270	0.00	29.842 
20:50	23.0	23.0	23.0	82	18.3	3	7	292	0.00	29.842 
20:55	22.9	22.9	22.9	82	18.2	3	12	270	0.00	29.842 
21:00	22.9	22.9	22.9	82	18.2	3	8	292	0.00	29.850 
21:05	22.7	22.7	22.7	81	17.8	3	6	315	0.00	29.850 
21:10	22.5	17.1	22.5	81	17.6	4	7	292	0.00	29.850 
21:15	22.4	22.4	22.4	81	17.5	3	9	292	0.00	29.860 
21:20	22.4	22.4	22.4	81	17.5	3	9	292	0.00	29.860 
21:25	22.2	22.2	22.2	81	17.3	3	7	315	0.00	29.860 
21:30	22.1	22.1	22.1	80	16.9	2	5	270	0.00	29.870 
21:35	21.9	21.9	21.9	80	16.7	3	7	292	0.00	29.870 
21:40	21.9	21.9	21.9	81	17.0	2	5	315	0.00	29.870 
21:45	21.8	21.8	21.8	81	16.9	2	5	292	0.00	29.882 
21:50	21.8	21.8	21.8	81	16.9	2	7	270	0.00	29.882 
21:55	21.8	21.8	21.8	81	16.9	2	5	292	0.00	29.882 
22:00	21.8	21.8	21.8	81	16.9	0	3	315	0.00	29.893 
22:05	21.8	21.8	21.8	81	16.9	2	5	315	0.00	29.893 
22:10	21.8	21.8	21.8	81	16.9	2	5	292	0.00	29.893 
22:15	21.9	21.9	21.9	81	17.0	1	5	270	0.00	29.904 
22:20	21.9	21.9	21.9	81	17.0	2	5	270	0.00	29.904 
22:25	22.1	22.1	22.1	81	17.2	3	7	315	0.00	29.904 
22:30	22.1	22.1	22.1	81	17.2	2	6	270	0.00	29.908 
22:35	22.1	22.1	22.1	80	16.9	2	5	315	0.00	29.908 
22:40	22.1	22.1	22.1	80	16.9	3	6	248	0.00	29.908 
22:45	21.9	21.9	21.9	80	16.7	2	6	315	0.00	29.917 
22:50	21.9	21.9	21.9	80	16.7	2	4	292	0.00	29.917 
22:55	21.9	21.9	21.9	80	16.7	2	6	248	0.00	29.917 
23:00	21.9	21.9	21.9	81	17.0	1	5	315	0.00	29.924 
23:05	21.9	21.9	21.9	81	17.0	2	4	292	0.00	29.924 
23:10	21.9	21.9	21.9	81	17.0	2	5	315	0.00	29.924 
23:15	21.9	21.9	21.9	81	17.0	2	4	248	0.00	29.932 
23:20	21.9	21.9	21.9	81	17.0	2	5	270	0.00	29.932 
23:25	21.9	21.9	21.9	81	17.0	1	4	292	0.00	29.932 
23:30	21.9	21.9	21.9	80	16.7	3	6	292	0.00	29.937 
23:35	21.9	21.9	21.9	80	16.7	2	6	270	0.00	29.937 
23:40	21.9	21.9	21.9	79	16.4	3	12	270	0.00	29.937 
23:45	21.9	21.9	21.9	78	16.1	2	6	292	0.00	29.949 
23:50	21.9	21.9	21.9	78	16.1	2	5	292	0.00	29.949 
23:55	22.1	22.1	22.1	78	16.3	2	5	292	0.00	29.949 

CoCoRaHS
IN-AL-39
A2 Web Hosting
Creative Commons License
GoDaddy
search engine by freefind advanced

loaded 2018-11-17 14:03:10 • last modified 2010-11-18 10:43:29
Privacy PolicyDisclaimer
• wx.awcolley.com is powered by PmWiki v.2002016 •
• all content (unless otherwise noted) © 2018 A W Colley